EHEH/EIN METAR and TAF weather

Enter ICAO airport designator
Station Type Date Time Source
EHEH METAR 2020/09/25 06:10 UTC NOAA

EHEH 250610Z AUTO 18008KT 150V210 9999 FEW023 SCT033 OVC039 09/07 Q0995 BLU NOSIG


Station Type Date Time Source
EHEH Decoded METAR 2020/09/25 06:10 UTC NOAA

Eindhoven, Netherlands (EHEH) 51-27N 005-25E 28M
Sep 25, 2020 - 02:10 AM EDT / 2020.09.25 0610 UTC
Wind: from the S (180 degrees) at 9 MPH (8 KT) (direction variable):0
Visibility: greater than 7 mile(s):0
Sky conditions: overcast
Temperature: 48 F (9 C)
Dew Point: 44 F (7 C)
Relative Humidity: 87%
Pressure (altimeter): 29.38 in. Hg (0995 hPa)
ob: EHEH 250610Z AUTO 18008KT 150V210 9999 FEW023 SCT033 OVC039 09/07 Q0995 BLU NOSIG
cycle: 6

Station Type Date Time Source
EHEH TAF 2020/09/25 06:33 UTC NOAA

TAF TAF EHEH 250505Z 2506/2612 18007KT 9999 FEW015
BECMG 2507/2509 21014G25KT PROB30
TEMPO 2513/2515 SCT015 BKN025
BECMG 2514/2516 SCT018 BKN020
TEMPO 2516/2521 4000 RA SHRA FEW012 BKN015 SCT018CB OVC020
BECMG 2518/2521 VRB05KT
TEMPO 2518/2603 32010G20KT 4000 -DZRA SCT007 BKN012 OVC015 PROB30
TEMPO 2622/2702 3000 DZRA SCT004 BKN007
BECMG 2603/2605 30007KT FEW007 SCT012
BECMG 2607/2610 SCT020

Example: see airport list